Cantil, CA (93519)

7:11 AM PDT on August 28, 2015 (GMT -0700)
APRSWXNET | | Change Station
CLOSE
Current Station
Personal Weather Station
Location: Cantil, CA
Elevation: 2158 ft
Nearby Weather Stations

Elev 2158 ft 35.30 °N, 118.00 °W | Updated 26 minutes ago

Clear
Clear
74 °F
Feels Like 77 °F
N
3
Wind Variable Wind from NE
Gusts 5.0 mph

Today
High -- | Low -- °F
--% Chance of Precip.
Yesterday
High -- | Low -- °F
Precip. -- in
6:21 AM 7:24 PM
Waxing Gibbous, 98% visible
Pressure 30.03 in
Visibility 5.0 miles
Clouds Clear
Heat Index 77 °F
Dew Point 41 °F
Humidity 30%
Rainfall in
Snow Depth Not available.
UV 0 out of 12
Pollen 8.10 out of 12
Air Quality Not available.
Flu Activity Not available.
METAR KMHV 281340Z AUTO 00000KT 5SM HZ CLR 24/04 A3003 RMK A01
Pressure 30.03 in
Visibility 5.0 miles
Clouds Clear
Heat Index 77 °F
Dew Point 41 °F
Humidity 30%
Rainfall in
Snow Depth Not available.
UV 0 out of 12
Pollen 8.10 out of 12
Air Quality Not available.
Flu Activity Not available.
METAR KMHV 281340Z AUTO 00000KT 5SM HZ CLR 24/04 A3003 RMK A01

10-Day Weather Forecast

×

Almanac

Astronomy

Aug. 28, 2015 Rise Set
Actual Time
Civil Twilight
Nautical Twilight
Astronomical Twilight
Moon
Length of Visible Light
Length of Day
Tomorrow will be .
, % of the Moon is Illuminated

Today's Extremes

State Highs State Lows

Community

WunderPhotos

Upload Photos

1,850,379 photos uploaded!

WunderBlogs® & News

Nearby

Air Quality

  Air Quality AQ Index Pollutant
Not available.

Snow Depth

Station Depth Elevation

Earthquake Activity

City Distance Mag. Time & Date
Minimum magnitude displayed is 2.5.

Coastal Water Temperatures

Place Temperature

Stations

Nearby Weather Stations

Station Location Temp. Windchill Dew Point Humidity Wind Precip. Elev Updated Type